Sunflower Gold — JD2460 — position and weather

sailwx.info

Track history (hours):
 
Tides and Currents Weather Stations Pressure Air Temp Water Temp Dewpoint Dewpoint Depression Visibility Wind Speed Wind Dir Waves Ship Positions

Sunflower Gold

Last reported at 2016-Feb-09 11:19 UTC. Time now 2016-Feb-09 17:54 UTC.
Position N 34°36' E 134°54'.

Length 166 m; draft 5.8 m.

Type: Passenger vessel. MMSI: 431000331.

Date/timePositionNaut miles runAvg speedWind from/ knotsBaromVisibWave heightAir tempDewpointWater temp
2016-Feb-09 11:19N 34°36' E 134°54'1519.8
2016-Feb-09 10:33N 34°36' E 135°13'6 6.1
2016-Feb-09 09:30N 34°42' E 135°17'0 0.0
2016-Feb-09 08:24N 34°42' E 135°17'0 0.0
2016-Feb-09 07:24N 34°42' E 135°17'0 0.0
2016-Feb-09 06:24N 34°42' E 135°17'0 0.0
2016-Feb-09 05:30N 34°42' E 135°17'0 0.0
2016-Feb-09 04:30N 34°42' E 135°17'0 0.0
2016-Feb-09 03:30N 34°42' E 135°17'0 0.0
2016-Feb-09 02:30N 34°42' E 135°17'0 0.0
2016-Feb-09 01:30N 34°42' E 135°17'0 0.0
2016-Feb-09 00:24N 34°42' E 135°17'0 0.0
2016-Feb-08 23:24N 34°42' E 135°17'0 0.0
2016-Feb-08 22:24N 34°42' E 135°17'0 0.0
2016-Feb-08 21:33N 34°42' E 135°17'1211.9
2016-Feb-08 20:34N 34°35' E 135°06'1717.1
2016-Feb-08 19:32N 34°31' E 134°45'6 0.2
2016-Feb-07 11:26N 34°35' E 134°50'1820.1
2016-Feb-07 10:33N 34°36' E 135°12'7 6.8
2016-Feb-07 09:33N 34°42' E 135°17'0 0.0
2016-Feb-07 08:28N 34°42' E 135°17'0 0.0
2016-Feb-07 07:22N 34°42' E 135°17'0 0.0
2016-Feb-07 06:28N 34°42' E 135°17'0 0.0
2016-Feb-07 05:28N 34°42' E 135°17'0 0.0
2016-Feb-07 04:28N 34°42' E 135°17'0 0.0
2016-Feb-07 03:10N 34°42' E 135°17'0 0.0
2016-Feb-07 02:22N 34°42' E 135°17'0 0.0
2016-Feb-07 01:28N 34°42' E 135°17'0 0.0
2016-Feb-07 00:16N 34°42' E 135°17'0 0.0
2016-Feb-06 23:28N 34°42' E 135°17'2 2.7
2016-Feb-06 22:33N 34°40' E 135°18'1514.9
2016-Feb-06 21:33N 34°37' E 135°01'7 0.2
2016-Feb-05 12:10N 34°35' E 134°53'1219.0
2016-Feb-05 11:34N 34°36' E 135°07'1010.2
2016-Feb-05 10:33N 34°42' E 135°17'0 0.0
2016-Feb-05 09:32N 34°42' E 135°17'0 0.0
2016-Feb-05 08:32N 34°42' E 135°17'0 0.0
2016-Feb-05 07:32N 34°42' E 135°17'0 0.0
2016-Feb-05 06:26N 34°42' E 135°17'0 0.0
2016-Feb-05 05:32N 34°42' E 135°17'0 0.0
2016-Feb-05 04:32N 34°42' E 135°17'0 0.0
2016-Feb-05 03:32N 34°42' E 135°17'0 0.0
2016-Feb-05 02:32N 34°42' E 135°17'0 0.0
2016-Feb-05 01:32N 34°42' E 135°17'0 0.0
2016-Feb-05 00:32N 34°42' E 135°17'0 0.0
2016-Feb-04 23:32N 34°42' E 135°17'0 0.0
2016-Feb-04 22:32N 34°42' E 135°17'0 0.1
2016-Feb-04 21:34N 34°42' E 135°17'1313.4
2016-Feb-04 20:33N 34°36' E 135°02'11 0.3
2016-Feb-03 11:33N 34°34' E 134°49'2019.6
2016-Feb-03 10:33N 34°36' E 135°12'7 5.8
2016-Feb-03 09:23N 34°42' E 135°17'0 0.0
2016-Feb-03 08:29N 34°42' E 135°17'0 0.0
2016-Feb-03 07:29N 34°42' E 135°17'0 0.0
2016-Feb-03 06:29N 34°42' E 135°17'0 0.0
2016-Feb-03 05:29N 34°42' E 135°17'0 0.0
2016-Feb-03 04:29N 34°42' E 135°17'0 0.0
2016-Feb-03 03:29N 34°42' E 135°17'0 0.0
2016-Feb-03 02:29N 34°42' E 135°17'0 0.0
2016-Feb-03 01:29N 34°42' E 135°17'0 0.0
2016-Feb-03 00:29N 34°42' E 135°17'0 0.0
2016-Feb-02 23:29N 34°42' E 135°17'0 0.0
2016-Feb-02 22:29N 34°42' E 135°17'0 0.0
2016-Feb-02 21:33N 34°42' E 135°17'1312.7
2016-Feb-02 20:33N 34°35' E 135°04'11 0.3
2016-Feb-01 11:27N 34°35' E 134°51'1618.0
2016-Feb-01 10:33N 34°36' E 135°10'8 7.0
2016-Feb-01 09:28N 34°42' E 135°17'0 0.0
2016-Feb-01 08:28N 34°42' E 135°17'0 0.0
2016-Feb-01 07:28N 34°42' E 135°17'0 0.0
2016-Feb-01 06:22N 34°42' E 135°17'0 0.0
2016-Feb-01 05:28N 34°42' E 135°17'0 0.0
2016-Feb-01 04:28N 34°42' E 135°17'0 0.0
2016-Feb-01 03:28N 34°42' E 135°17'0 0.0
2016-Feb-01 02:28N 34°42' E 135°17'0 0.0
2016-Feb-01 01:22N 34°42' E 135°17'0 0.0
2016-Feb-01 00:28N 34°42' E 135°17'0 0.0
2016-Jan-31 23:28N 34°42' E 135°17'0 0.0
2016-Jan-31 22:28N 34°42' E 135°17'0 0.0
2016-Jan-31 21:33N 34°42' E 135°17'1111.4
2016-Jan-31 20:33N 34°35' E 135°06'16 0.5
2016-Jan-30 12:25N 34°33' E 134°47'1719.4
2016-Jan-30 11:33N 34°36' E 135°06'  
Track history (hours):
 
Tides and Currents Weather Stations Pressure Air Temp Water Temp Dewpoint Dewpoint Depression Visibility Wind Speed Wind Dir Waves Ship Positions

Sunflower Gold

Last reported at 2016-Feb-09 11:19 UTC. Time now 2016-Feb-09 17:54 UTC.
Position N 34°36' E 134°54'.

Length 166 m; draft 5.8 m.

Type: Passenger vessel. MMSI: 431000331.

Date/timePositionNaut miles runAvg speedWind from/ knotsBaromVisibWave heightAir tempDewpointWater temp
2016-Feb-09 11:19N 34°36' E 134°54'1519.8
2016-Feb-09 10:33N 34°36' E 135°13'6 6.1
2016-Feb-09 09:30N 34°42' E 135°17'0 0.0
2016-Feb-09 08:24N 34°42' E 135°17'0 0.0
2016-Feb-09 07:24N 34°42' E 135°17'0 0.0
2016-Feb-09 06:24N 34°42' E 135°17'0 0.0
2016-Feb-09 05:30N 34°42' E 135°17'0 0.0
2016-Feb-09 04:30N 34°42' E 135°17'0 0.0
2016-Feb-09 03:30N 34°42' E 135°17'0 0.0
2016-Feb-09 02:30N 34°42' E 135°17'0 0.0
2016-Feb-09 01:30N 34°42' E 135°17'0 0.0
2016-Feb-09 00:24N 34°42' E 135°17'0 0.0
2016-Feb-08 23:24N 34°42' E 135°17'0 0.0
2016-Feb-08 22:24N 34°42' E 135°17'0 0.0
2016-Feb-08 21:33N 34°42' E 135°17'1211.9
2016-Feb-08 20:34N 34°35' E 135°06'1717.1
2016-Feb-08 19:32N 34°31' E 134°45'6 0.2
2016-Feb-07 11:26N 34°35' E 134°50'1820.1
2016-Feb-07 10:33N 34°36' E 135°12'7 6.8
2016-Feb-07 09:33N 34°42' E 135°17'0 0.0
2016-Feb-07 08:28N 34°42' E 135°17'0 0.0
2016-Feb-07 07:22N 34°42' E 135°17'0 0.0
2016-Feb-07 06:28N 34°42' E 135°17'0 0.0
2016-Feb-07 05:28N 34°42' E 135°17'0 0.0
2016-Feb-07 04:28N 34°42' E 135°17'0 0.0
2016-Feb-07 03:10N 34°42' E 135°17'0 0.0
2016-Feb-07 02:22N 34°42' E 135°17'0 0.0
2016-Feb-07 01:28N 34°42' E 135°17'0 0.0
2016-Feb-07 00:16N 34°42' E 135°17'0 0.0
2016-Feb-06 23:28N 34°42' E 135°17'2 2.7
2016-Feb-06 22:33N 34°40' E 135°18'1514.9
2016-Feb-06 21:33N 34°37' E 135°01'7 0.2
2016-Feb-05 12:10N 34°35' E 134°53'1219.0
2016-Feb-05 11:34N 34°36' E 135°07'1010.2
2016-Feb-05 10:33N 34°42' E 135°17'0 0.0
2016-Feb-05 09:32N 34°42' E 135°17'0 0.0
2016-Feb-05 08:32N 34°42' E 135°17'0 0.0
2016-Feb-05 07:32N 34°42' E 135°17'0 0.0
2016-Feb-05 06:26N 34°42' E 135°17'0 0.0
2016-Feb-05 05:32N 34°42' E 135°17'0 0.0
2016-Feb-05 04:32N 34°42' E 135°17'0 0.0
2016-Feb-05 03:32N 34°42' E 135°17'0 0.0
2016-Feb-05 02:32N 34°42' E 135°17'0 0.0
2016-Feb-05 01:32N 34°42' E 135°17'0 0.0
2016-Feb-05 00:32N 34°42' E 135°17'0 0.0
2016-Feb-04 23:32N 34°42' E 135°17'0 0.0
2016-Feb-04 22:32N 34°42' E 135°17'0 0.1
2016-Feb-04 21:34N 34°42' E 135°17'1313.4
2016-Feb-04 20:33N 34°36' E 135°02'11 0.3
2016-Feb-03 11:33N 34°34' E 134°49'2019.6
2016-Feb-03 10:33N 34°36' E 135°12'7 5.8
2016-Feb-03 09:23N 34°42' E 135°17'0 0.0
2016-Feb-03 08:29N 34°42' E 135°17'0 0.0
2016-Feb-03 07:29N 34°42' E 135°17'0 0.0
2016-Feb-03 06:29N 34°42' E 135°17'0 0.0
2016-Feb-03 05:29N 34°42' E 135°17'0 0.0
2016-Feb-03 04:29N 34°42' E 135°17'0 0.0
2016-Feb-03 03:29N 34°42' E 135°17'0 0.0
2016-Feb-03 02:29N 34°42' E 135°17'0 0.0
2016-Feb-03 01:29N 34°42' E 135°17'0 0.0
2016-Feb-03 00:29N 34°42' E 135°17'0 0.0
2016-Feb-02 23:29N 34°42' E 135°17'0 0.0
2016-Feb-02 22:29N 34°42' E 135°17'0 0.0
2016-Feb-02 21:33N 34°42' E 135°17'1312.7
2016-Feb-02 20:33N 34°35' E 135°04'11 0.3
2016-Feb-01 11:27N 34°35' E 134°51'1618.0
2016-Feb-01 10:33N 34°36' E 135°10'8 7.0
2016-Feb-01 09:28N 34°42' E 135°17'0 0.0
2016-Feb-01 08:28N 34°42' E 135°17'0 0.0
2016-Feb-01 07:28N 34°42' E 135°17'0 0.0
2016-Feb-01 06:22N 34°42' E 135°17'0 0.0
2016-Feb-01 05:28N 34°42' E 135°17'0 0.0
2016-Feb-01 04:28N 34°42' E 135°17'0 0.0
2016-Feb-01 03:28N 34°42' E 135°17'0 0.0
2016-Feb-01 02:28N 34°42' E 135°17'0 0.0
2016-Feb-01 01:22N 34°42' E 135°17'0 0.0
2016-Feb-01 00:28N 34°42' E 135°17'0 0.0
2016-Jan-31 23:28N 34°42' E 135°17'0 0.0
2016-Jan-31 22:28N 34°42' E 135°17'0 0.0
2016-Jan-31 21:33N 34°42' E 135°17'1111.4
2016-Jan-31 20:33N 34°35' E 135°06'16 0.5
2016-Jan-30 12:25N 34°33' E 134°47'1719.4
2016-Jan-30 11:33N 34°36' E 135°06'  

Dump ship's entire track history